createdAt,value
2022-12-16T00:00:50.938Z,4.00
2022-12-16T00:03:18.961Z,4.04
2022-12-16T00:05:49.704Z,3.82
2022-12-16T00:08:19.652Z,3.88
2022-12-16T00:10:56.429Z,3.87
2022-12-16T00:13:25.791Z,3.87
2022-12-16T00:15:53.771Z,3.80
2022-12-16T00:18:22.661Z,3.76
2022-12-16T00:20:53.574Z,3.69
2022-12-16T00:23:23.084Z,3.72
2022-12-16T00:25:51.903Z,3.75
2022-12-16T00:28:23.131Z,3.85
2022-12-16T00:30:55.080Z,3.85
2022-12-16T00:33:25.347Z,3.79
2022-12-16T00:35:53.936Z,3.78
2022-12-16T00:38:24.249Z,3.69
2022-12-16T00:40:52.301Z,3.75
2022-12-16T00:43:20.914Z,3.86
2022-12-16T00:45:49.285Z,3.93
2022-12-16T00:48:18.863Z,3.98
2022-12-16T00:50:50.772Z,3.88
2022-12-16T00:53:20.902Z,3.82
2022-12-16T00:55:49.161Z,3.62
2022-12-16T00:58:17.172Z,3.62
2022-12-16T01:00:45.359Z,3.45
2022-12-16T01:03:17.957Z,3.46
2022-12-16T01:05:50.615Z,3.43
2022-12-16T01:08:18.738Z,3.56
2022-12-16T01:10:51.661Z,3.62
2022-12-16T01:13:21.103Z,3.78
2022-12-16T01:15:49.613Z,3.74
2022-12-16T01:18:18.936Z,3.74
2022-12-16T01:20:46.974Z,3.83
2022-12-16T01:23:16.229Z,3.86
2022-12-16T01:25:44.150Z,3.82
2022-12-16T01:28:12.086Z,3.83
2022-12-16T01:30:40.179Z,3.90
2022-12-16T01:33:08.107Z,3.96
2022-12-16T01:35:55.228Z,3.83
2022-12-16T01:38:25.510Z,3.78
2022-12-16T01:40:55.039Z,3.86
2022-12-16T01:43:26.968Z,3.78
2022-12-16T01:45:59.282Z,3.72
2022-12-16T01:48:36.678Z,3.87
2022-12-16T01:51:08.369Z,3.90
2022-12-16T01:53:41.389Z,3.62
2022-12-16T01:56:09.865Z,3.77
2022-12-16T01:58:41.191Z,3.77
2022-12-16T02:01:09.247Z,3.91
2022-12-16T02:03:38.148Z,3.97
2022-12-16T02:06:08.170Z,3.79
2022-12-16T02:08:37.842Z,3.85
2022-12-16T02:11:21.057Z,3.80
2022-12-16T02:14:08.490Z,3.89
2022-12-16T02:16:47.989Z,3.87
2022-12-16T02:19:47.111Z,4.00
2022-12-16T02:22:28.876Z,4.05
2022-12-16T02:25:25.840Z,3.91
2022-12-16T02:28:02.282Z,3.92
2022-12-16T02:30:41.177Z,3.83
2022-12-16T02:33:23.558Z,3.82
2022-12-16T02:35:58.302Z,3.78
2022-12-16T02:38:31.942Z,3.79
2022-12-16T02:41:04.100Z,3.66
2022-12-16T02:43:49.944Z,3.74
2022-12-16T02:46:23.189Z,3.63
2022-12-16T02:48:51.106Z,3.74
2022-12-16T02:51:19.623Z,3.64
2022-12-16T02:53:48.314Z,3.60
2022-12-16T02:56:27.794Z,3.66
2022-12-16T02:59:05.008Z,3.55
2022-12-16T03:01:41.171Z,3.50
2022-12-16T03:04:14.012Z,3.56
2022-12-16T03:06:45.182Z,3.67
2022-12-16T03:09:16.957Z,3.73
2022-12-16T03:11:46.728Z,3.79
2022-12-16T03:14:19.709Z,3.83
2022-12-16T03:16:50.680Z,3.96
2022-12-16T03:19:20.756Z,3.98
2022-12-16T03:21:56.766Z,3.95
2022-12-16T03:24:25.584Z,4.11
2022-12-16T03:27:02.564Z,4.05
2022-12-16T03:29:38.850Z,4.17
2022-12-16T03:32:13.818Z,4.18
2022-12-16T03:34:47.394Z,4.19
2022-12-16T03:37:15.766Z,4.06
2022-12-16T03:39:51.032Z,4.17
2022-12-16T03:42:19.153Z,4.17
2022-12-16T03:44:49.026Z,4.04
2022-12-16T03:47:23.354Z,4.00
2022-12-16T03:49:51.904Z,3.87
2022-12-16T03:52:19.945Z,3.69
2022-12-16T03:54:47.981Z,3.74
2022-12-16T03:57:15.985Z,3.55
2022-12-16T03:59:44.019Z,3.63
2022-12-16T04:02:12.049Z,3.58
2022-12-16T04:04:41.459Z,3.64
2022-12-16T04:07:23.227Z,3.59
2022-12-16T04:09:52.393Z,3.63
2022-12-16T04:12:38.463Z,3.59
2022-12-16T04:15:25.374Z,3.75
2022-12-16T04:18:10.704Z,3.78
2022-12-16T04:21:01.398Z,3.72
2022-12-16T04:23:48.600Z,3.73
2022-12-16T04:26:17.147Z,3.67
2022-12-16T04:28:45.109Z,3.70
2022-12-16T04:31:13.156Z,3.84
2022-12-16T04:33:59.222Z,3.86
2022-12-16T04:36:45.817Z,3.88
2022-12-16T04:39:30.992Z,3.97
2022-12-16T04:42:16.411Z,3.96
2022-12-16T04:45:01.679Z,3.97
2022-12-16T04:47:48.071Z,4.01
2022-12-16T04:50:34.980Z,3.92
2022-12-16T04:53:21.956Z,3.88
2022-12-16T04:56:07.402Z,3.89
2022-12-16T04:58:52.593Z,3.97
2022-12-16T05:01:37.743Z,3.91
2022-12-16T05:04:23.284Z,4.01
2022-12-16T05:07:08.675Z,3.96
2022-12-16T05:09:55.543Z,3.99
2022-12-16T05:12:40.911Z,4.02
2022-12-16T05:15:26.790Z,3.99
2022-12-16T05:18:12.033Z,4.12
2022-12-16T05:20:57.495Z,4.03
2022-12-16T05:23:48.414Z,4.05
2022-12-16T05:26:35.163Z,4.05
2022-12-16T05:29:20.561Z,4.09
2022-12-16T05:32:05.792Z,4.15
2022-12-16T05:34:50.866Z,4.10
2022-12-16T05:37:36.265Z,4.01
2022-12-16T05:40:22.029Z,4.01
2022-12-16T05:43:12.097Z,3.92
2022-12-16T05:46:04.222Z,4.04
2022-12-16T05:48:49.984Z,4.00
2022-12-16T05:51:40.655Z,3.99
2022-12-16T05:54:26.198Z,3.87
2022-12-16T05:57:11.315Z,3.90
2022-12-16T05:59:58.363Z,3.87
2022-12-16T06:02:43.814Z,3.91
2022-12-16T06:05:26.063Z,4.00
2022-12-16T06:08:11.845Z,3.99
2022-12-16T06:10:57.861Z,3.95
2022-12-16T06:13:43.459Z,4.00
2022-12-16T06:16:30.457Z,4.11
2022-12-16T06:19:18.181Z,4.13
2022-12-16T06:22:03.702Z,4.03
2022-12-16T06:24:49.366Z,4.03
2022-12-16T06:27:35.239Z,3.82
2022-12-16T06:30:20.487Z,3.93
2022-12-16T06:33:07.386Z,3.89
2022-12-16T06:35:52.670Z,3.88
2022-12-16T06:38:38.381Z,3.92
2022-12-16T06:41:24.227Z,3.97
2022-12-16T06:44:09.404Z,3.91
2022-12-16T06:46:54.602Z,3.99
2022-12-16T06:49:41.683Z,4.09
2022-12-16T06:52:26.894Z,4.19
2022-12-16T06:55:12.613Z,4.24
2022-12-16T06:57:59.238Z,4.35
2022-12-16T07:00:59.601Z,4.34
2022-12-16T07:03:45.192Z,4.41
2022-12-16T07:06:31.146Z,4.52
2022-12-16T07:09:16.670Z,4.47
2022-12-16T07:12:02.229Z,4.49
2022-12-16T07:14:49.996Z,4.27
2022-12-16T07:17:35.299Z,4.49
2022-12-16T07:20:20.743Z,4.49
2022-12-16T07:23:14.593Z,4.36
2022-12-16T07:26:03.024Z,4.42
2022-12-16T07:28:48.834Z,4.44
2022-12-16T07:31:34.577Z,4.34
2022-12-16T07:34:20.029Z,4.34
2022-12-16T07:37:06.177Z,4.39
2022-12-16T07:39:55.147Z,4.30
2022-12-16T07:42:41.512Z,4.47
2022-12-16T07:45:27.838Z,4.48
2022-12-16T07:48:13.328Z,4.38
2022-12-16T07:50:58.972Z,4.44
2022-12-16T07:53:44.691Z,4.50
2022-12-16T07:56:31.467Z,4.51
2022-12-16T07:59:17.352Z,4.62
2022-12-16T08:02:04.068Z,4.64
2022-12-16T08:04:49.581Z,4.62
2022-12-16T08:07:34.987Z,4.71
2022-12-16T08:10:20.436Z,4.70
2022-12-16T08:13:07.663Z,4.62
2022-12-16T08:15:53.065Z,4.63
2022-12-16T08:18:38.620Z,4.63
2022-12-16T08:21:29.596Z,4.78
2022-12-16T08:24:14.974Z,4.75
2022-12-16T08:26:59.973Z,4.76
2022-12-16T08:29:46.717Z,4.81
2022-12-16T08:32:32.580Z,4.83
2022-12-16T08:35:18.287Z,4.98
2022-12-16T08:38:07.605Z,5.05
2022-12-16T08:40:57.994Z,5.08
2022-12-16T08:43:43.287Z,5.04
2022-12-16T08:46:30.228Z,4.85
2022-12-16T08:52:05.553Z,5.28
2022-12-16T08:54:51.153Z,5.35
2022-12-16T08:57:36.796Z,5.44
2022-12-16T09:00:23.009Z,5.43
2022-12-16T09:03:14.454Z,5.54
2022-12-16T09:06:10.625Z,5.68
2022-12-16T09:08:56.212Z,5.72
2022-12-16T09:11:41.464Z,5.80
2022-12-16T09:14:26.884Z,5.88
2022-12-16T09:17:12.358Z,5.89
2022-12-16T09:19:59.802Z,6.02
2022-12-16T09:22:45.025Z,6.12
2022-12-16T09:25:32.618Z,6.31
2022-12-16T09:28:14.507Z,6.04
2022-12-16T09:31:00.172Z,6.08
2022-12-16T09:33:45.910Z,6.62
2022-12-16T09:36:32.691Z,7.08
2022-12-16T09:39:18.320Z,7.69
2022-12-16T09:42:13.550Z,8.28
2022-12-16T09:45:11.642Z,8.65
2022-12-16T09:48:05.579Z,9.03
2022-12-16T09:50:51.570Z,9.07
2022-12-16T09:53:41.396Z,9.49
2022-12-16T09:56:37.012Z,10.10
2022-12-16T09:59:30.309Z,10.23
2022-12-16T10:02:15.835Z,10.05
2022-12-16T10:05:02.951Z,10.06
2022-12-16T10:07:51.698Z,10.11
2022-12-16T10:10:47.873Z,10.37
2022-12-16T10:13:41.245Z,10.79
2022-12-16T10:16:36.169Z,11.23
2022-12-16T10:19:31.436Z,11.51
2022-12-16T10:22:22.697Z,11.49
2022-12-16T10:25:20.346Z,11.53
2022-12-16T10:28:17.837Z,11.80
2022-12-16T10:31:03.667Z,12.05
2022-12-16T10:33:49.043Z,12.23
2022-12-16T10:36:39.144Z,12.26
2022-12-16T10:39:48.685Z,12.56
2022-12-16T10:42:39.769Z,12.94
2022-12-16T10:45:32.477Z,13.05
2022-12-16T10:48:17.975Z,13.00
2022-12-16T10:51:03.477Z,13.51
2022-12-16T10:53:48.676Z,13.75
2022-12-16T10:56:53.405Z,13.89
2022-12-16T10:59:39.152Z,14.08
2022-12-16T11:02:37.743Z,14.10
2022-12-16T11:05:48.932Z,13.55
2022-12-16T11:08:47.241Z,13.48
2022-12-16T11:11:40.266Z,13.80
2022-12-16T11:15:05.395Z,14.41
2022-12-16T11:17:51.408Z,14.85
2022-12-16T11:20:38.897Z,14.92
2022-12-16T11:23:34.245Z,15.32
2022-12-16T11:26:40.135Z,15.03
2022-12-16T11:29:30.172Z,15.25
2022-12-16T11:32:20.888Z,15.30
2022-12-16T11:35:13.910Z,15.58
2022-12-16T11:38:01.563Z,15.89
2022-12-16T11:40:48.954Z,15.60
2022-12-16T11:43:37.385Z,15.57
2022-12-16T11:46:32.336Z,15.77
2022-12-16T11:49:24.988Z,15.82
2022-12-16T11:52:35.862Z,16.21
2022-12-16T11:56:02.935Z,16.34
2022-12-16T11:58:43.207Z,15.94
2022-12-16T12:01:33.924Z,16.43
2022-12-16T12:04:19.678Z,16.57
2022-12-16T12:07:26.009Z,16.73
2022-12-16T12:10:20.623Z,16.80
2022-12-16T12:13:15.385Z,16.90
2022-12-16T12:16:08.602Z,16.99
2022-12-16T12:19:01.261Z,17.01
2022-12-16T12:21:53.767Z,16.94
2022-12-16T12:24:56.205Z,16.83
2022-12-16T12:27:50.895Z,17.02
2022-12-16T12:30:53.651Z,16.70
2022-12-16T12:33:50.655Z,16.74
2022-12-16T12:36:44.829Z,16.55
2022-12-16T12:39:40.574Z,16.49
2022-12-16T12:42:49.215Z,16.54
2022-12-16T12:45:55.959Z,16.58
2022-12-16T12:48:51.771Z,16.49
2022-12-16T12:51:48.050Z,16.29
2022-12-16T12:54:41.719Z,16.33
2022-12-16T12:57:31.859Z,16.60
2022-12-16T13:00:22.161Z,16.71
2022-12-16T13:03:13.015Z,16.81
2022-12-16T13:05:59.984Z,17.18
2022-12-16T13:09:16.079Z,17.32
2022-12-16T13:12:44.029Z,17.23
2022-12-16T13:15:38.341Z,17.14
2022-12-16T13:18:51.027Z,17.09
2022-12-16T13:22:03.041Z,17.45
2022-12-16T13:25:00.449Z,17.36
2022-12-16T13:27:47.751Z,17.31
2022-12-16T13:30:42.438Z,17.14
2022-12-16T13:33:42.702Z,17.10
2022-12-16T13:36:29.757Z,16.80
2022-12-16T13:39:18.341Z,16.95
2022-12-16T13:42:10.532Z,16.82
2022-12-16T13:45:17.163Z,16.66
2022-12-16T13:48:22.380Z,16.38
2022-12-16T13:51:18.027Z,16.18
2022-12-16T13:54:08.275Z,15.96
2022-12-16T13:56:57.604Z,15.92
2022-12-16T13:59:46.499Z,15.48
2022-12-16T14:02:39.179Z,15.47
2022-12-16T14:05:39.184Z,15.20
2022-12-16T14:08:29.946Z,14.80
2022-12-16T14:11:20.500Z,14.94
2022-12-16T14:14:13.410Z,14.88
2022-12-16T14:17:08.520Z,14.77
2022-12-16T14:20:05.152Z,14.71
2022-12-16T14:23:08.508Z,14.57
2022-12-16T14:25:54.226Z,14.43
2022-12-16T14:28:47.000Z,14.06
2022-12-16T14:31:36.340Z,14.02
2022-12-16T14:34:23.744Z,13.92
2022-12-16T14:37:17.169Z,13.61
2022-12-16T14:40:10.981Z,13.54
2022-12-16T14:43:00.254Z,13.22
2022-12-16T14:45:49.094Z,13.22
2022-12-16T14:48:49.189Z,13.04
2022-12-16T14:51:46.949Z,13.01
2022-12-16T14:54:38.266Z,12.94
2022-12-16T14:57:30.648Z,12.86
2022-12-16T15:00:34.656Z,12.79
2022-12-16T15:03:27.303Z,12.75
2022-12-16T15:06:14.196Z,12.74
2022-12-16T15:09:09.284Z,12.66
2022-12-16T15:11:56.199Z,12.74
2022-12-16T15:14:46.906Z,12.61
2022-12-16T15:17:41.382Z,12.55
2022-12-16T15:20:39.479Z,12.49
2022-12-16T15:23:34.511Z,12.02
2022-12-16T15:26:20.374Z,12.04
2022-12-16T15:29:06.022Z,12.25
2022-12-16T15:32:01.380Z,12.22
2022-12-16T15:34:50.634Z,11.94
2022-12-16T15:37:40.521Z,11.89
2022-12-16T15:40:45.078Z,12.00
2022-12-16T15:43:47.111Z,11.68
2022-12-16T15:46:37.838Z,11.81
2022-12-16T15:49:33.069Z,11.92
2022-12-16T15:52:19.858Z,11.87
2022-12-16T15:55:10.600Z,11.98
2022-12-16T15:57:58.357Z,12.01
2022-12-16T16:00:46.326Z,11.77
2022-12-16T16:03:41.243Z,11.69
2022-12-16T16:06:36.573Z,11.72
2022-12-16T16:09:32.350Z,11.78
2022-12-16T16:12:17.975Z,11.65
2022-12-16T16:15:03.225Z,11.50
2022-12-16T16:17:49.140Z,11.53
2022-12-16T16:20:37.197Z,11.67
2022-12-16T16:23:20.545Z,11.58
2022-12-16T16:26:06.801Z,11.57
2022-12-16T16:28:52.378Z,11.54
2022-12-16T16:31:37.865Z,11.39
2022-12-16T16:34:23.296Z,11.36
2022-12-16T16:37:12.245Z,11.35
2022-12-16T16:40:00.155Z,11.43
2022-12-16T16:42:46.049Z,11.35
2022-12-16T16:45:32.116Z,11.27
2022-12-16T16:48:24.955Z,11.26
2022-12-16T16:51:15.112Z,11.18
2022-12-16T16:54:00.913Z,11.20
2022-12-16T16:56:52.699Z,10.93
2022-12-16T16:59:40.812Z,10.86
2022-12-16T17:02:40.511Z,10.74
2022-12-16T17:05:27.653Z,10.77
2022-12-16T17:08:10.019Z,10.77
2022-12-16T17:10:55.234Z,10.75
2022-12-16T17:13:42.304Z,10.30
2022-12-16T17:16:29.699Z,10.31
2022-12-16T17:19:15.804Z,10.24
2022-12-16T17:22:01.394Z,10.10
2022-12-16T17:24:53.899Z,10.10
2022-12-16T17:27:42.349Z,10.10
2022-12-16T17:30:33.985Z,10.17
2022-12-16T17:33:18.992Z,10.06
2022-12-16T17:36:07.171Z,9.84
2022-12-16T17:38:57.090Z,9.77
2022-12-16T17:41:43.249Z,9.71
2022-12-16T17:44:28.704Z,9.76
2022-12-16T17:47:15.525Z,9.72
2022-12-16T17:50:01.254Z,9.63
2022-12-16T17:52:47.002Z,9.77
2022-12-16T17:55:32.757Z,9.60
2022-12-16T17:58:18.464Z,9.58
2022-12-16T18:01:03.688Z,9.55
2022-12-16T18:03:50.372Z,9.37
2022-12-16T18:06:35.813Z,9.27
2022-12-16T18:09:21.424Z,9.27
2022-12-16T18:12:06.522Z,9.27
2022-12-16T18:14:52.219Z,9.41
2022-12-16T18:17:37.498Z,9.36
2022-12-16T18:20:25.219Z,9.47
2022-12-16T18:23:11.632Z,9.53
2022-12-16T18:25:56.492Z,9.32
2022-12-16T18:28:42.440Z,9.41
2022-12-16T18:31:27.991Z,9.26
2022-12-16T18:34:13.363Z,9.22
2022-12-16T18:37:00.363Z,9.28
2022-12-16T18:39:45.563Z,9.35
2022-12-16T18:42:31.268Z,9.18
2022-12-16T18:45:17.060Z,9.10
2022-12-16T18:48:11.138Z,9.19
2022-12-16T18:50:56.538Z,8.91
2022-12-16T18:53:44.103Z,9.01
2022-12-16T18:56:29.664Z,8.93
2022-12-16T18:59:15.206Z,8.95
2022-12-16T19:02:01.037Z,8.98
2022-12-16T19:04:46.580Z,8.56
2022-12-16T19:07:34.002Z,8.72
2022-12-16T19:10:21.015Z,8.36
2022-12-16T19:13:06.321Z,8.45
2022-12-16T19:15:52.464Z,8.40
2022-12-16T19:18:38.303Z,8.43
2022-12-16T19:21:23.921Z,8.48
2022-12-16T19:24:09.603Z,8.32
2022-12-16T19:30:01.863Z,8.40
2022-12-16T19:32:47.499Z,8.30
2022-12-16T19:35:33.007Z,8.43
2022-12-16T19:38:30.245Z,8.52
2022-12-16T19:41:15.656Z,8.45
2022-12-16T19:44:06.078Z,8.13
2022-12-16T19:47:09.456Z,8.19
2022-12-16T19:49:56.112Z,8.21
2022-12-16T19:52:42.031Z,7.97
2022-12-16T19:55:28.188Z,7.95
2022-12-16T19:58:13.837Z,7.92
2022-12-16T20:01:00.867Z,7.79
2022-12-16T20:03:46.418Z,7.84
2022-12-16T20:06:32.302Z,7.95
2022-12-16T20:09:17.976Z,7.67
2022-12-16T20:12:03.450Z,7.75
2022-12-16T20:14:48.622Z,7.76
2022-12-16T20:17:35.460Z,7.87
2022-12-16T20:20:21.200Z,7.95
2022-12-16T20:23:06.974Z,7.70
2022-12-16T20:25:56.304Z,7.90
2022-12-16T20:28:42.306Z,7.94
2022-12-16T20:31:27.717Z,7.91
2022-12-16T20:34:20.300Z,7.79
2022-12-16T20:37:05.682Z,7.81
2022-12-16T20:42:57.091Z,7.93
2022-12-16T20:45:42.310Z,7.92
2022-12-16T20:48:32.565Z,7.94
2022-12-16T20:51:26.504Z,7.64
2022-12-16T20:54:12.991Z,7.70
2022-12-16T20:56:58.542Z,7.65
2022-12-16T20:59:43.498Z,7.74
2022-12-16T21:05:37.140Z,7.51
2022-12-16T21:08:24.413Z,7.59
2022-12-16T21:11:09.577Z,7.55
2022-12-16T21:13:56.467Z,7.57
2022-12-16T21:14:42.936Z,7.66
2022-12-16T21:16:47.435Z,7.43
2022-12-16T21:19:33.725Z,7.40
2022-12-16T21:22:19.398Z,7.46
2022-12-16T21:25:17.600Z,7.36
2022-12-16T21:28:05.178Z,7.43
2022-12-16T21:30:55.870Z,7.43
2022-12-16T21:33:42.112Z,7.31
2022-12-16T21:36:28.032Z,7.34
2022-12-16T21:39:13.374Z,7.46
2022-12-16T21:42:00.432Z,7.22
2022-12-16T21:44:45.527Z,7.30
2022-12-16T21:47:30.614Z,7.23
2022-12-16T21:50:15.662Z,7.26
2022-12-16T21:53:01.204Z,7.22
2022-12-16T21:56:01.352Z,7.32
2022-12-16T21:58:48.362Z,7.39
2022-12-16T22:01:33.693Z,7.45
2022-12-16T22:04:19.180Z,7.07
2022-12-16T22:07:04.428Z,7.21
2022-12-16T22:09:49.533Z,6.85
2022-12-16T22:12:34.884Z,6.84
2022-12-16T22:15:22.227Z,6.70
2022-12-16T22:18:07.565Z,6.58
2022-12-16T22:20:54.887Z,6.48
2022-12-16T22:23:40.844Z,6.70
2022-12-16T22:26:27.419Z,6.62
2022-12-16T22:29:13.162Z,6.69
2022-12-16T22:31:59.946Z,6.73
2022-12-16T22:34:45.599Z,6.80
2022-12-16T22:36:21.322Z,7.69
2022-12-16T22:37:30.915Z,6.86
2022-12-16T22:40:16.614Z,6.61
2022-12-16T22:43:02.363Z,6.42
2022-12-16T22:45:49.775Z,6.64
2022-12-16T22:48:36.972Z,6.57
2022-12-16T22:51:22.856Z,6.53
2022-12-16T22:54:08.132Z,6.52
2022-12-16T22:56:53.315Z,6.30
2022-12-16T22:59:41.689Z,6.42
2022-12-16T23:02:27.259Z,6.31
2022-12-16T23:05:14.100Z,6.46
2022-12-16T23:07:59.274Z,6.41
2022-12-16T23:10:44.849Z,6.44
2022-12-16T23:13:31.104Z,6.38
2022-12-16T23:16:16.810Z,6.48
2022-12-16T23:19:02.182Z,6.45
2022-12-16T23:21:48.985Z,6.57
2022-12-16T23:24:30.765Z,6.39
2022-12-16T23:27:16.770Z,6.34
2022-12-16T23:30:02.062Z,6.29
2022-12-16T23:32:47.415Z,6.44
2022-12-16T23:35:29.239Z,6.28
2022-12-16T23:38:20.306Z,6.29
2022-12-16T23:41:05.724Z,6.22
2022-12-16T23:43:50.762Z,6.42
2022-12-16T23:46:37.079Z,6.37
2022-12-16T23:49:22.799Z,6.35
2022-12-16T23:52:08.104Z,6.33
2022-12-16T23:54:55.319Z,6.11
2022-12-16T23:57:41.095Z,6.07
